sensor_id;sensor_type;location;lat;lon;timestamp;P1;durP1;ratioP1;P2;durP2;ratioP2
6432;SDS011;3249;42.690;23.260;2023-05-27T00:00:05;15.00;;;12.70;;
6432;SDS011;3249;42.690;23.260;2023-05-27T00:02:40;14.23;;;11.63;;
6432;SDS011;3249;42.690;23.260;2023-05-27T00:05:08;14.03;;;12.67;;
6432;SDS011;3249;42.690;23.260;2023-05-27T00:07:38;18.73;;;16.70;;
6432;SDS011;3249;42.690;23.260;2023-05-27T00:10:07;17.30;;;15.20;;
6432;SDS011;3249;42.690;23.260;2023-05-27T00:12:36;20.83;;;17.23;;
6432;SDS011;3249;42.690;23.260;2023-05-27T00:15:05;22.60;;;17.63;;
6432;SDS011;3249;42.690;23.260;2023-05-27T00:17:39;19.73;;;17.57;;
6432;SDS011;3249;42.690;23.260;2023-05-27T00:20:08;19.67;;;16.33;;
6432;SDS011;3249;42.690;23.260;2023-05-27T00:22:38;18.00;;;16.27;;
6432;SDS011;3249;42.690;23.260;2023-05-27T00:25:07;22.03;;;17.70;;
6432;SDS011;3249;42.690;23.260;2023-05-27T00:27:36;19.23;;;17.23;;
6432;SDS011;3249;42.690;23.260;2023-05-27T00:30:09;22.47;;;17.27;;
6432;SDS011;3249;42.690;23.260;2023-05-27T00:32:38;18.73;;;16.67;;
6432;SDS011;3249;42.690;23.260;2023-05-27T00:35:08;23.20;;;17.60;;
6432;SDS011;3249;42.690;23.260;2023-05-27T00:37:37;16.60;;;15.00;;
6432;SDS011;3249;42.690;23.260;2023-05-27T00:40:08;17.27;;;15.23;;
6432;SDS011;3249;42.690;23.260;2023-05-27T00:42:39;15.20;;;13.70;;
6432;SDS011;3249;42.690;23.260;2023-05-27T00:45:11;14.53;;;13.07;;
6432;SDS011;3249;42.690;23.260;2023-05-27T00:47:40;13.60;;;12.17;;
6432;SDS011;3249;42.690;23.260;2023-05-27T00:50:11;13.73;;;12.17;;
6432;SDS011;3249;42.690;23.260;2023-05-27T00:52:39;13.83;;;12.50;;
6432;SDS011;3249;42.690;23.260;2023-05-27T00:55:08;15.70;;;11.03;;
6432;SDS011;3249;42.690;23.260;2023-05-27T00:57:38;13.00;;;11.20;;
6432;SDS011;3249;42.690;23.260;2023-05-27T01:00:07;12.27;;;9.57;;
6432;SDS011;3249;42.690;23.260;2023-05-27T01:02:40;9.93;;;8.97;;
6432;SDS011;3249;42.690;23.260;2023-05-27T01:05:11;9.23;;;8.53;;
6432;SDS011;3249;42.690;23.260;2023-05-27T01:07:46;9.83;;;8.93;;
6432;SDS011;3249;42.690;23.260;2023-05-27T01:10:28;7.00;;;6.47;;
6432;SDS011;3249;42.690;23.260;2023-05-27T01:13:06;7.80;;;6.90;;
6432;SDS011;3249;42.690;23.260;2023-05-27T01:15:43;6.43;;;5.97;;
6432;SDS011;3249;42.690;23.260;2023-05-27T01:18:16;8.33;;;6.90;;
6432;SDS011;3249;42.690;23.260;2023-05-27T01:20:45;8.73;;;8.03;;
6432;SDS011;3249;42.690;23.260;2023-05-27T01:23:19;8.23;;;6.97;;
6432;SDS011;3249;42.690;23.260;2023-05-27T01:25:50;8.50;;;7.80;;
6432;SDS011;3249;42.690;23.260;2023-05-27T01:28:19;8.07;;;7.40;;
6432;SDS011;3249;42.690;23.260;2023-05-27T01:30:49;8.23;;;7.43;;
6432;SDS011;3249;42.690;23.260;2023-05-27T01:33:23;7.70;;;6.90;;
6432;SDS011;3249;42.690;23.260;2023-05-27T01:35:59;7.70;;;7.10;;
6432;SDS011;3249;42.690;23.260;2023-05-27T01:38:35;9.53;;;8.20;;
6432;SDS011;3249;42.690;23.260;2023-05-27T01:41:11;7.10;;;6.47;;
6432;SDS011;3249;42.690;23.260;2023-05-27T01:43:42;9.50;;;7.47;;
6432;SDS011;3249;42.690;23.260;2023-05-27T01:46:12;8.13;;;6.67;;
6432;SDS011;3249;42.690;23.260;2023-05-27T01:48:41;7.40;;;6.70;;
6432;SDS011;3249;42.690;23.260;2023-05-27T01:51:10;8.50;;;7.80;;
6432;SDS011;3249;42.690;23.260;2023-05-27T01:53:42;7.73;;;7.13;;
6432;SDS011;3249;42.690;23.260;2023-05-27T01:56:11;7.90;;;7.33;;
6432;SDS011;3249;42.690;23.260;2023-05-27T01:58:39;9.60;;;8.57;;
6432;SDS011;3249;42.690;23.260;2023-05-27T02:01:09;9.97;;;8.70;;
6432;SDS011;3249;42.690;23.260;2023-05-27T02:03:38;9.87;;;8.97;;
6432;SDS011;3249;42.690;23.260;2023-05-27T02:06:08;10.53;;;9.53;;
6432;SDS011;3249;42.690;23.260;2023-05-27T02:08:37;11.53;;;10.47;;
6432;SDS011;3249;42.690;23.260;2023-05-27T02:11:09;11.43;;;10.43;;
6432;SDS011;3249;42.690;23.260;2023-05-27T02:13:37;12.70;;;11.47;;
6432;SDS011;3249;42.690;23.260;2023-05-27T02:16:08;12.37;;;11.27;;
6432;SDS011;3249;42.690;23.260;2023-05-27T02:18:38;12.70;;;11.47;;
6432;SDS011;3249;42.690;23.260;2023-05-27T02:21:07;11.90;;;10.70;;
6432;SDS011;3249;42.690;23.260;2023-05-27T02:23:35;13.07;;;11.77;;
6432;SDS011;3249;42.690;23.260;2023-05-27T02:26:05;13.00;;;11.77;;
6432;SDS011;3249;42.690;23.260;2023-05-27T02:28:37;14.60;;;13.07;;
6432;SDS011;3249;42.690;23.260;2023-05-27T02:31:06;13.73;;;12.27;;
6432;SDS011;3249;42.690;23.260;2023-05-27T02:33:37;14.30;;;11.70;;
6432;SDS011;3249;42.690;23.260;2023-05-27T02:36:06;13.93;;;12.57;;
6432;SDS011;3249;42.690;23.260;2023-05-27T02:38:36;14.20;;;12.03;;
6432;SDS011;3249;42.690;23.260;2023-05-27T02:41:05;14.77;;;13.23;;
6432;SDS011;3249;42.690;23.260;2023-05-27T02:43:37;14.17;;;12.87;;
6432;SDS011;3249;42.690;23.260;2023-05-27T02:46:06;13.47;;;12.17;;
6432;SDS011;3249;42.690;23.260;2023-05-27T02:48:35;14.67;;;13.23;;
6432;SDS011;3249;42.690;23.260;2023-05-27T02:51:04;14.87;;;13.07;;
6432;SDS011;3249;42.690;23.260;2023-05-27T02:53:33;14.60;;;12.97;;
6432;SDS011;3249;42.690;23.260;2023-05-27T02:56:02;16.67;;;12.97;;
6432;SDS011;3249;42.690;23.260;2023-05-27T02:58:32;14.23;;;12.60;;
6432;SDS011;3249;42.690;23.260;2023-05-27T03:01:04;13.53;;;12.23;;
6432;SDS011;3249;42.690;23.260;2023-05-27T03:03:33;16.83;;;12.50;;
6432;SDS011;3249;42.690;23.260;2023-05-27T03:06:01;14.43;;;13.00;;
6432;SDS011;3249;42.690;23.260;2023-05-27T03:08:31;15.07;;;11.83;;
6432;SDS011;3249;42.690;23.260;2023-05-27T03:11:00;11.93;;;10.87;;
6432;SDS011;3249;42.690;23.260;2023-05-27T03:13:29;11.77;;;10.57;;
6432;SDS011;3249;42.690;23.260;2023-05-27T03:15:58;10.60;;;9.60;;
6432;SDS011;3249;42.690;23.260;2023-05-27T03:18:30;8.13;;;7.53;;
6432;SDS011;3249;42.690;23.260;2023-05-27T03:20:59;9.33;;;8.50;;
6432;SDS011;3249;42.690;23.260;2023-05-27T03:23:29;9.37;;;8.53;;
6432;SDS011;3249;42.690;23.260;2023-05-27T03:25:58;10.77;;;9.77;;
6432;SDS011;3249;42.690;23.260;2023-05-27T03:28:28;8.70;;;8.10;;
6432;SDS011;3249;42.690;23.260;2023-05-27T03:30:57;8.87;;;8.07;;
6432;SDS011;3249;42.690;23.260;2023-05-27T03:33:41;8.63;;;7.83;;
6432;SDS011;3249;42.690;23.260;2023-05-27T03:36:11;11.73;;;8.80;;
6432;SDS011;3249;42.690;23.260;2023-05-27T03:38:41;7.40;;;6.90;;
6432;SDS011;3249;42.690;23.260;2023-05-27T03:41:10;5.83;;;5.33;;
6432;SDS011;3249;42.690;23.260;2023-05-27T03:43:39;7.17;;;6.47;;
6432;SDS011;3249;42.690;23.260;2023-05-27T03:46:09;8.87;;;8.00;;
6432;SDS011;3249;42.690;23.260;2023-05-27T03:48:38;8.30;;;7.50;;
6432;SDS011;3249;42.690;23.260;2023-05-27T03:51:10;8.67;;;7.97;;
6432;SDS011;3249;42.690;23.260;2023-05-27T03:53:39;7.40;;;6.80;;
6432;SDS011;3249;42.690;23.260;2023-05-27T03:56:09;7.93;;;7.23;;
6432;SDS011;3249;42.690;23.260;2023-05-27T03:58:38;7.33;;;6.73;;
6432;SDS011;3249;42.690;23.260;2023-05-27T04:01:07;8.87;;;7.10;;
6432;SDS011;3249;42.690;23.260;2023-05-27T04:03:37;7.30;;;6.80;;
6432;SDS011;3249;42.690;23.260;2023-05-27T04:06:07;8.27;;;7.67;;
6432;SDS011;3249;42.690;23.260;2023-05-27T04:08:39;8.70;;;8.00;;
6432;SDS011;3249;42.690;23.260;2023-05-27T04:11:10;8.70;;;7.90;;
6432;SDS011;3249;42.690;23.260;2023-05-27T04:13:39;8.33;;;7.53;;
6432;SDS011;3249;42.690;23.260;2023-05-27T04:16:09;7.17;;;6.67;;
6432;SDS011;3249;42.690;23.260;2023-05-27T04:18:39;7.87;;;7.17;;
6432;SDS011;3249;42.690;23.260;2023-05-27T04:21:10;7.63;;;7.03;;
6432;SDS011;3249;42.690;23.260;2023-05-27T04:23:41;8.40;;;7.80;;
6432;SDS011;3249;42.690;23.260;2023-05-27T04:26:11;8.70;;;7.80;;
6432;SDS011;3249;42.690;23.260;2023-05-27T04:28:46;8.33;;;7.53;;
6432;SDS011;3249;42.690;23.260;2023-05-27T04:31:16;8.50;;;7.87;;
6432;SDS011;3249;42.690;23.260;2023-05-27T04:33:51;14.00;;;12.60;;
6432;SDS011;3249;42.690;23.260;2023-05-27T04:36:23;12.10;;;10.97;;
6432;SDS011;3249;42.690;23.260;2023-05-27T04:39:12;9.83;;;7.57;;
6432;SDS011;3249;42.690;23.260;2023-05-27T04:41:42;9.53;;;8.73;;
6432;SDS011;3249;42.690;23.260;2023-05-27T04:44:22;9.30;;;7.63;;
6432;SDS011;3249;42.690;23.260;2023-05-27T04:46:54;5.07;;;4.77;;
6432;SDS011;3249;42.690;23.260;2023-05-27T04:49:24;5.70;;;5.20;;
6432;SDS011;3249;42.690;23.260;2023-05-27T04:51:57;6.00;;;5.40;;
6432;SDS011;3249;42.690;23.260;2023-05-27T04:54:27;5.10;;;4.70;;
6432;SDS011;3249;42.690;23.260;2023-05-27T04:56:57;5.03;;;4.70;;
6432;SDS011;3249;42.690;23.260;2023-05-27T04:59:30;5.83;;;5.23;;
6432;SDS011;3249;42.690;23.260;2023-05-27T05:02:12;5.13;;;4.73;;
6432;SDS011;3249;42.690;23.260;2023-05-27T05:05:00;5.07;;;4.67;;
6432;SDS011;3249;42.690;23.260;2023-05-27T05:07:32;5.30;;;4.27;;
6432;SDS011;3249;42.690;23.260;2023-05-27T05:10:04;5.73;;;4.50;;
6432;SDS011;3249;42.690;23.260;2023-05-27T05:12:39;6.30;;;4.90;;
6432;SDS011;3249;42.690;23.260;2023-05-27T05:15:09;5.23;;;4.90;;
6432;SDS011;3249;42.690;23.260;2023-05-27T05:17:39;5.87;;;5.47;;
6432;SDS011;3249;42.690;23.260;2023-05-27T05:20:09;6.90;;;6.30;;
6432;SDS011;3249;42.690;23.260;2023-05-27T05:22:42;9.10;;;7.43;;
6432;SDS011;3249;42.690;23.260;2023-05-27T05:25:11;9.00;;;7.97;;
6432;SDS011;3249;42.690;23.260;2023-05-27T05:27:47;6.97;;;6.20;;
6432;SDS011;3249;42.690;23.260;2023-05-27T05:30:16;7.17;;;6.53;;
6432;SDS011;3249;42.690;23.260;2023-05-27T05:32:45;8.13;;;7.33;;
6432;SDS011;3249;42.690;23.260;2023-05-27T05:35:15;8.60;;;7.00;;
6432;SDS011;3249;42.690;23.260;2023-05-27T05:37:52;10.93;;;7.43;;
6432;SDS011;3249;42.690;23.260;2023-05-27T05:40:21;7.63;;;6.83;;
6432;SDS011;3249;42.690;23.260;2023-05-27T05:43:05;7.83;;;7.03;;
6432;SDS011;3249;42.690;23.260;2023-05-27T05:45:34;10.17;;;7.90;;
6432;SDS011;3249;42.690;23.260;2023-05-27T05:48:03;18.23;;;8.53;;
6432;SDS011;3249;42.690;23.260;2023-05-27T05:50:33;11.07;;;7.40;;
6432;SDS011;3249;42.690;23.260;2023-05-27T05:53:05;9.17;;;7.20;;
6432;SDS011;3249;42.690;23.260;2023-05-27T05:55:34;11.40;;;7.73;;
6432;SDS011;3249;42.690;23.260;2023-05-27T05:58:03;8.93;;;8.03;;
6432;SDS011;3249;42.690;23.260;2023-05-27T06:00:31;9.53;;;7.07;;
6432;SDS011;3249;42.690;23.260;2023-05-27T06:03:24;9.23;;;7.87;;
6432;SDS011;3249;42.690;23.260;2023-05-27T06:05:55;8.73;;;6.90;;
6432;SDS011;3249;42.690;23.260;2023-05-27T06:08:28;8.30;;;7.50;;
6432;SDS011;3249;42.690;23.260;2023-05-27T06:11:04;10.83;;;8.03;;
6432;SDS011;3249;42.690;23.260;2023-05-27T06:13:34;16.73;;;8.40;;
6432;SDS011;3249;42.690;23.260;2023-05-27T06:16:06;10.13;;;7.43;;
6432;SDS011;3249;42.690;23.260;2023-05-27T06:18:36;8.27;;;7.23;;
6432;SDS011;3249;42.690;23.260;2023-05-27T06:21:04;7.87;;;7.27;;
6432;SDS011;3249;42.690;23.260;2023-05-27T06:23:56;10.30;;;7.23;;
6432;SDS011;3249;42.690;23.260;2023-05-27T06:26:31;8.47;;;6.93;;
6432;SDS011;3249;42.690;23.260;2023-05-27T06:29:01;7.53;;;6.70;;
6432;SDS011;3249;42.690;23.260;2023-05-27T06:31:30;9.03;;;7.43;;
6432;SDS011;3249;42.690;23.260;2023-05-27T06:33:59;8.37;;;7.00;;
6432;SDS011;3249;42.690;23.260;2023-05-27T06:36:28;8.30;;;7.10;;
6432;SDS011;3249;42.690;23.260;2023-05-27T06:39:00;18.40;;;7.50;;
6432;SDS011;3249;42.690;23.260;2023-05-27T06:41:32;8.40;;;7.60;;
6432;SDS011;3249;42.690;23.260;2023-05-27T06:44:21;18.43;;;8.97;;
6432;SDS011;3249;42.690;23.260;2023-05-27T06:47:00;10.83;;;9.53;;
6432;SDS011;3249;42.690;23.260;2023-05-27T06:49:30;13.83;;;9.40;;
6432;SDS011;3249;42.690;23.260;2023-05-27T06:52:02;12.40;;;8.90;;
6432;SDS011;3249;42.690;23.260;2023-05-27T06:54:42;14.10;;;8.13;;
6432;SDS011;3249;42.690;23.260;2023-05-27T06:57:50;10.10;;;8.30;;
6432;SDS011;3249;42.690;23.260;2023-05-27T07:00:27;8.87;;;8.20;;
6432;SDS011;3249;42.690;23.260;2023-05-27T07:03:13;10.33;;;9.43;;
6432;SDS011;3249;42.690;23.260;2023-05-27T07:05:43;10.97;;;9.87;;
6432;SDS011;3249;42.690;23.260;2023-05-27T07:08:12;10.80;;;9.70;;
6432;SDS011;3249;42.690;23.260;2023-05-27T07:10:45;10.20;;;9.17;;
6432;SDS011;3249;42.690;23.260;2023-05-27T07:13:14;11.00;;;8.47;;
6432;SDS011;3249;42.690;23.260;2023-05-27T07:15:48;10.20;;;8.97;;
6432;SDS011;3249;42.690;23.260;2023-05-27T07:18:17;15.97;;;10.37;;
6432;SDS011;3249;42.690;23.260;2023-05-27T07:20:47;11.77;;;9.23;;
6432;SDS011;3249;42.690;23.260;2023-05-27T07:23:17;12.20;;;9.73;;
6432;SDS011;3249;42.690;23.260;2023-05-27T07:25:56;15.77;;;9.87;;
6432;SDS011;3249;42.690;23.260;2023-05-27T07:28:25;10.63;;;9.63;;
6432;SDS011;3249;42.690;23.260;2023-05-27T07:31:04;11.43;;;9.73;;
6432;SDS011;3249;42.690;23.260;2023-05-27T07:33:40;13.73;;;9.70;;
6432;SDS011;3249;42.690;23.260;2023-05-27T07:36:11;10.23;;;9.23;;
6432;SDS011;3249;42.690;23.260;2023-05-27T07:38:40;10.10;;;9.17;;
6432;SDS011;3249;42.690;23.260;2023-05-27T07:41:12;10.90;;;9.20;;
6432;SDS011;3249;42.690;23.260;2023-05-27T07:43:42;10.17;;;9.03;;
6432;SDS011;3249;42.690;23.260;2023-05-27T07:46:11;9.37;;;8.57;;
6432;SDS011;3249;42.690;23.260;2023-05-27T07:48:40;11.67;;;10.57;;
6432;SDS011;3249;42.690;23.260;2023-05-27T07:51:10;12.13;;;10.03;;
6432;SDS011;3249;42.690;23.260;2023-05-27T07:53:38;13.17;;;10.40;;
6432;SDS011;3249;42.690;23.260;2023-05-27T07:56:08;12.23;;;10.83;;
6432;SDS011;3249;42.690;23.260;2023-05-27T07:58:40;12.30;;;9.83;;
6432;SDS011;3249;42.690;23.260;2023-05-27T08:01:11;13.70;;;9.83;;
6432;SDS011;3249;42.690;23.260;2023-05-27T08:03:46;9.00;;;7.93;;
6432;SDS011;3249;42.690;23.260;2023-05-27T08:06:17;17.33;;;8.73;;
6432;SDS011;3249;42.690;23.260;2023-05-27T08:09:08;13.07;;;9.00;;
6432;SDS011;3249;42.690;23.260;2023-05-27T08:12:04;7.97;;;7.33;;
6432;SDS011;3249;42.690;23.260;2023-05-27T08:14:56;11.00;;;7.30;;
6432;SDS011;3249;42.690;23.260;2023-05-27T08:18:01;11.47;;;7.53;;
6432;SDS011;3249;42.690;23.260;2023-05-27T08:20:48;8.10;;;6.90;;
6432;SDS011;3249;42.690;23.260;2023-05-27T08:23:20;8.43;;;6.83;;
6432;SDS011;3249;42.690;23.260;2023-05-27T08:25:59;9.93;;;6.60;;
6432;SDS011;3249;42.690;23.260;2023-05-27T08:28:39;13.27;;;10.47;;
6432;SDS011;3249;42.690;23.260;2023-05-27T08:31:20;13.07;;;8.80;;
6432;SDS011;3249;42.690;23.260;2023-05-27T08:33:54;9.67;;;7.03;;
6432;SDS011;3249;42.690;23.260;2023-05-27T08:36:23;11.80;;;7.83;;
6432;SDS011;3249;42.690;23.260;2023-05-27T08:38:52;15.67;;;9.63;;
6432;SDS011;3249;42.690;23.260;2023-05-27T08:41:27;7.70;;;6.93;;
6432;SDS011;3249;42.690;23.260;2023-05-27T08:43:59;7.33;;;6.37;;
6432;SDS011;3249;42.690;23.260;2023-05-27T08:46:31;6.77;;;6.07;;
6432;SDS011;3249;42.690;23.260;2023-05-27T08:49:02;9.27;;;6.70;;
6432;SDS011;3249;42.690;23.260;2023-05-27T08:51:31;8.17;;;7.33;;
6432;SDS011;3249;42.690;23.260;2023-05-27T08:54:01;15.97;;;8.67;;
6432;SDS011;3249;42.690;23.260;2023-05-27T08:56:31;12.60;;;8.93;;
6432;SDS011;3249;42.690;23.260;2023-05-27T08:59:03;8.73;;;7.93;;
6432;SDS011;3249;42.690;23.260;2023-05-27T09:01:35;9.40;;;8.60;;
6432;SDS011;3249;42.690;23.260;2023-05-27T09:04:05;10.57;;;7.60;;
6432;SDS011;3249;42.690;23.260;2023-05-27T09:06:35;13.73;;;8.87;;
6432;SDS011;3249;42.690;23.260;2023-05-27T09:09:06;11.70;;;8.43;;
6432;SDS011;3249;42.690;23.260;2023-05-27T09:11:38;11.73;;;7.73;;
6432;SDS011;3249;42.690;23.260;2023-05-27T09:14:08;9.03;;;7.20;;
6432;SDS011;3249;42.690;23.260;2023-05-27T09:16:44;8.73;;;5.83;;
6432;SDS011;3249;42.690;23.260;2023-05-27T09:19:16;5.57;;;4.87;;
6432;SDS011;3249;42.690;23.260;2023-05-27T09:21:46;6.27;;;5.83;;
6432;SDS011;3249;42.690;23.260;2023-05-27T09:24:16;7.27;;;6.57;;
6432;SDS011;3249;42.690;23.260;2023-05-27T09:26:45;7.97;;;6.30;;
6432;SDS011;3249;42.690;23.260;2023-05-27T09:29:14;6.90;;;6.33;;
6432;SDS011;3249;42.690;23.260;2023-05-27T09:31:46;7.37;;;6.67;;
6432;SDS011;3249;42.690;23.260;2023-05-27T09:34:15;8.40;;;6.97;;
6432;SDS011;3249;42.690;23.260;2023-05-27T09:36:45;6.87;;;6.27;;
6432;SDS011;3249;42.690;23.260;2023-05-27T09:39:14;6.60;;;6.10;;
6432;SDS011;3249;42.690;23.260;2023-05-27T09:41:49;8.77;;;6.40;;
6432;SDS011;3249;42.690;23.260;2023-05-27T09:44:19;6.87;;;6.20;;
6432;SDS011;3249;42.690;23.260;2023-05-27T09:46:51;6.97;;;6.07;;
6432;SDS011;3249;42.690;23.260;2023-05-27T09:49:22;11.20;;;7.70;;
6432;SDS011;3249;42.690;23.260;2023-05-27T09:51:54;7.43;;;6.73;;
6432;SDS011;3249;42.690;23.260;2023-05-27T09:54:25;6.93;;;6.10;;
6432;SDS011;3249;42.690;23.260;2023-05-27T09:56:54;6.47;;;5.97;;
6432;SDS011;3249;42.690;23.260;2023-05-27T09:59:25;6.40;;;5.83;;
6432;SDS011;3249;42.690;23.260;2023-05-27T10:01:56;7.90;;;6.00;;
6432;SDS011;3249;42.690;23.260;2023-05-27T10:04:28;8.27;;;6.73;;
6432;SDS011;3249;42.690;23.260;2023-05-27T10:06:58;6.73;;;6.13;;
6432;SDS011;3249;42.690;23.260;2023-05-27T10:09:28;7.27;;;6.00;;
6432;SDS011;3249;42.690;23.260;2023-05-27T10:11:57;6.80;;;6.13;;
6432;SDS011;3249;42.690;23.260;2023-05-27T10:14:27;8.37;;;5.57;;
6432;SDS011;3249;42.690;23.260;2023-05-27T10:16:58;8.60;;;5.20;;
6432;SDS011;3249;42.690;23.260;2023-05-27T10:19:27;7.50;;;6.47;;
6432;SDS011;3249;42.690;23.260;2023-05-27T10:22:06;6.83;;;6.23;;
6432;SDS011;3249;42.690;23.260;2023-05-27T10:24:36;6.93;;;6.43;;
6432;SDS011;3249;42.690;23.260;2023-05-27T10:27:05;6.43;;;5.67;;
6432;SDS011;3249;42.690;23.260;2023-05-27T10:29:35;6.23;;;5.63;;
6432;SDS011;3249;42.690;23.260;2023-05-27T10:32:09;5.70;;;5.30;;
6432;SDS011;3249;42.690;23.260;2023-05-27T10:34:38;7.83;;;6.20;;
6432;SDS011;3249;42.690;23.260;2023-05-27T10:37:18;12.13;;;6.53;;
6432;SDS011;3249;42.690;23.260;2023-05-27T10:39:55;7.30;;;6.53;;
6432;SDS011;3249;42.690;23.260;2023-05-27T10:42:24;5.73;;;5.40;;
6432;SDS011;3249;42.690;23.260;2023-05-27T10:45:01;6.47;;;5.50;;
6432;SDS011;3249;42.690;23.260;2023-05-27T10:47:41;12.13;;;6.40;;
6432;SDS011;3249;42.690;23.260;2023-05-27T10:50:14;7.20;;;6.50;;
6432;SDS011;3249;42.690;23.260;2023-05-27T10:52:42;7.77;;;6.90;;
6432;SDS011;3249;42.690;23.260;2023-05-27T10:55:12;6.13;;;5.73;;
6432;SDS011;3249;42.690;23.260;2023-05-27T10:57:42;7.60;;;6.70;;
6432;SDS011;3249;42.690;23.260;2023-05-27T11:00:12;6.10;;;5.10;;
6432;SDS011;3249;42.690;23.260;2023-05-27T11:02:48;7.57;;;5.70;;
6432;SDS011;3249;42.690;23.260;2023-05-27T11:05:19;5.30;;;4.80;;
6432;SDS011;3249;42.690;23.260;2023-05-27T11:07:48;7.37;;;4.83;;
6432;SDS011;3249;42.690;23.260;2023-05-27T11:10:17;5.47;;;5.17;;
6432;SDS011;3249;42.690;23.260;2023-05-27T11:12:46;6.63;;;6.03;;
6432;SDS011;3249;42.690;23.260;2023-05-27T11:15:15;6.77;;;6.17;;
6432;SDS011;3249;42.690;23.260;2023-05-27T11:17:49;5.70;;;5.30;;
6432;SDS011;3249;42.690;23.260;2023-05-27T11:20:18;7.37;;;6.77;;
6432;SDS011;3249;42.690;23.260;2023-05-27T11:22:50;10.13;;;6.43;;
6432;SDS011;3249;42.690;23.260;2023-05-27T11:25:19;6.80;;;6.30;;
6432;SDS011;3249;42.690;23.260;2023-05-27T11:27:49;7.43;;;6.70;;
6432;SDS011;3249;42.690;23.260;2023-05-27T11:30:22;6.37;;;5.87;;
6432;SDS011;3249;42.690;23.260;2023-05-27T11:33:01;7.13;;;5.50;;
6432;SDS011;3249;42.690;23.260;2023-05-27T11:35:30;6.43;;;5.93;;
6432;SDS011;3249;42.690;23.260;2023-05-27T11:38:01;6.50;;;5.90;;
6432;SDS011;3249;42.690;23.260;2023-05-27T11:40:34;6.53;;;6.07;;
6432;SDS011;3249;42.690;23.260;2023-05-27T11:43:16;6.30;;;5.83;;
6432;SDS011;3249;42.690;23.260;2023-05-27T11:45:46;7.53;;;5.60;;
6432;SDS011;3249;42.690;23.260;2023-05-27T11:48:17;7.67;;;5.40;;
6432;SDS011;3249;42.690;23.260;2023-05-27T11:50:46;5.77;;;5.33;;
6432;SDS011;3249;42.690;23.260;2023-05-27T11:53:18;5.47;;;5.07;;
6432;SDS011;3249;42.690;23.260;2023-05-27T11:55:49;6.50;;;5.90;;
6432;SDS011;3249;42.690;23.260;2023-05-27T11:58:18;5.90;;;5.37;;
6432;SDS011;3249;42.690;23.260;2023-05-27T12:00:47;6.10;;;5.70;;
6432;SDS011;3249;42.690;23.260;2023-05-27T12:03:18;7.17;;;6.63;;
6432;SDS011;3249;42.690;23.260;2023-05-27T12:05:48;7.00;;;6.30;;
6432;SDS011;3249;42.690;23.260;2023-05-27T12:08:17;6.80;;;6.20;;
6432;SDS011;3249;42.690;23.260;2023-05-27T12:10:46;6.33;;;5.87;;
6432;SDS011;3249;42.690;23.260;2023-05-27T12:13:19;6.30;;;5.80;;
6432;SDS011;3249;42.690;23.260;2023-05-27T12:15:49;6.80;;;6.03;;
6432;SDS011;3249;42.690;23.260;2023-05-27T12:18:21;9.00;;;6.30;;
6432;SDS011;3249;42.690;23.260;2023-05-27T12:20:50;7.20;;;5.87;;
6432;SDS011;3249;42.690;23.260;2023-05-27T12:23:19;6.90;;;6.20;;
6432;SDS011;3249;42.690;23.260;2023-05-27T12:25:48;5.93;;;5.53;;
6432;SDS011;3249;42.690;23.260;2023-05-27T12:28:17;6.40;;;5.80;;
6432;SDS011;3249;42.690;23.260;2023-05-27T12:30:46;6.27;;;5.80;;
6432;SDS011;3249;42.690;23.260;2023-05-27T12:33:15;7.00;;;6.40;;
6432;SDS011;3249;42.690;23.260;2023-05-27T12:35:47;6.00;;;5.27;;
6432;SDS011;3249;42.690;23.260;2023-05-27T12:38:16;8.60;;;5.97;;
6432;SDS011;3249;42.690;23.260;2023-05-27T12:40:45;6.57;;;6.07;;
6432;SDS011;3249;42.690;23.260;2023-05-27T12:43:14;6.80;;;6.17;;
6432;SDS011;3249;42.690;23.260;2023-05-27T12:45:44;6.40;;;5.80;;
6432;SDS011;3249;42.690;23.260;2023-05-27T12:48:13;6.10;;;5.70;;
6432;SDS011;3249;42.690;23.260;2023-05-27T12:50:43;6.27;;;5.40;;
6432;SDS011;3249;42.690;23.260;2023-05-27T12:53:15;6.13;;;5.63;;
6432;SDS011;3249;42.690;23.260;2023-05-27T12:55:43;6.77;;;6.17;;
6432;SDS011;3249;42.690;23.260;2023-05-27T12:58:13;7.97;;;6.40;;
6432;SDS011;3249;42.690;23.260;2023-05-27T13:00:41;7.57;;;6.00;;
6432;SDS011;3249;42.690;23.260;2023-05-27T13:03:10;6.40;;;5.63;;
6432;SDS011;3249;42.690;23.260;2023-05-27T13:05:39;6.50;;;6.00;;
6432;SDS011;3249;42.690;23.260;2023-05-27T13:08:08;6.47;;;5.87;;
6432;SDS011;3249;42.690;23.260;2023-05-27T13:10:40;6.83;;;6.33;;
6432;SDS011;3249;42.690;23.260;2023-05-27T13:13:09;6.57;;;6.07;;
6432;SDS011;3249;42.690;23.260;2023-05-27T13:15:38;7.20;;;6.50;;
6432;SDS011;3249;42.690;23.260;2023-05-27T13:18:07;7.50;;;7.00;;
6432;SDS011;3249;42.690;23.260;2023-05-27T13:20:38;7.70;;;7.10;;
6432;SDS011;3249;42.690;23.260;2023-05-27T13:23:10;6.23;;;5.60;;
6432;SDS011;3249;42.690;23.260;2023-05-27T13:25:41;6.33;;;5.90;;
6432;SDS011;3249;42.690;23.260;2023-05-27T13:28:10;5.97;;;5.40;;
6432;SDS011;3249;42.690;23.260;2023-05-27T13:30:40;6.17;;;5.57;;
6432;SDS011;3249;42.690;23.260;2023-05-27T13:33:09;6.00;;;5.33;;
6432;SDS011;3249;42.690;23.260;2023-05-27T13:35:38;6.00;;;5.50;;
6432;SDS011;3249;42.690;23.260;2023-05-27T13:38:06;6.00;;;5.50;;
6432;SDS011;3249;42.690;23.260;2023-05-27T13:40:37;8.67;;;5.47;;
6432;SDS011;3249;42.690;23.260;2023-05-27T13:43:09;6.67;;;5.80;;
6432;SDS011;3249;42.690;23.260;2023-05-27T13:45:38;5.80;;;5.27;;
6432;SDS011;3249;42.690;23.260;2023-05-27T13:48:08;5.90;;;5.33;;
6432;SDS011;3249;42.690;23.260;2023-05-27T13:50:36;5.83;;;5.40;;
6432;SDS011;3249;42.690;23.260;2023-05-27T13:53:05;6.17;;;5.60;;
6432;SDS011;3249;42.690;23.260;2023-05-27T13:55:34;6.57;;;5.97;;
6432;SDS011;3249;42.690;23.260;2023-05-27T13:58:03;7.77;;;7.13;;
6432;SDS011;3249;42.690;23.260;2023-05-27T14:00:35;5.87;;;5.40;;
6432;SDS011;3249;42.690;23.260;2023-05-27T14:03:04;5.73;;;5.23;;
6432;SDS011;3249;42.690;23.260;2023-05-27T14:05:33;6.33;;;5.83;;
6432;SDS011;3249;42.690;23.260;2023-05-27T14:08:02;5.67;;;5.27;;
6432;SDS011;3249;42.690;23.260;2023-05-27T14:10:31;6.13;;;5.50;;
6432;SDS011;3249;42.690;23.260;2023-05-27T14:13:01;5.50;;;5.10;;
6432;SDS011;3249;42.690;23.260;2023-05-27T14:15:30;8.07;;;5.07;;
6432;SDS011;3249;42.690;23.260;2023-05-27T14:18:02;5.27;;;4.80;;
6432;SDS011;3249;42.690;23.260;2023-05-27T14:20:35;6.93;;;5.03;;
6432;SDS011;3249;42.690;23.260;2023-05-27T14:23:04;5.10;;;4.63;;
6432;SDS011;3249;42.690;23.260;2023-05-27T14:25:36;6.23;;;5.63;;
6432;SDS011;3249;42.690;23.260;2023-05-27T14:28:05;5.07;;;4.73;;
6432;SDS011;3249;42.690;23.260;2023-05-27T14:30:33;7.03;;;5.73;;
6432;SDS011;3249;42.690;23.260;2023-05-27T14:33:05;5.50;;;5.03;;
6432;SDS011;3249;42.690;23.260;2023-05-27T14:35:35;5.63;;;5.13;;
6432;SDS011;3249;42.690;23.260;2023-05-27T14:38:05;4.90;;;4.50;;
6432;SDS011;3249;42.690;23.260;2023-05-27T14:40:35;5.80;;;5.40;;
6432;SDS011;3249;42.690;23.260;2023-05-27T14:43:04;8.23;;;6.90;;
6432;SDS011;3249;42.690;23.260;2023-05-27T14:45:33;6.13;;;5.53;;
6432;SDS011;3249;42.690;23.260;2023-05-27T14:48:04;6.30;;;5.30;;
6432;SDS011;3249;42.690;23.260;2023-05-27T14:50:35;6.57;;;5.73;;
6432;SDS011;3249;42.690;23.260;2023-05-27T14:53:04;5.97;;;5.50;;
6432;SDS011;3249;42.690;23.260;2023-05-27T14:55:32;5.63;;;5.17;;
6432;SDS011;3249;42.690;23.260;2023-05-27T14:58:01;5.63;;;4.87;;
6432;SDS011;3249;42.690;23.260;2023-05-27T15:00:32;6.50;;;5.90;;
6432;SDS011;3249;42.690;23.260;2023-05-27T15:03:01;6.00;;;5.60;;
6432;SDS011;3249;42.690;23.260;2023-05-27T15:05:32;6.10;;;4.70;;
6432;SDS011;3249;42.690;23.260;2023-05-27T15:08:01;5.67;;;4.83;;
6432;SDS011;3249;42.690;23.260;2023-05-27T15:10:31;6.33;;;5.73;;
6432;SDS011;3249;42.690;23.260;2023-05-27T15:13:00;5.60;;;5.20;;
6432;SDS011;3249;42.690;23.260;2023-05-27T15:15:29;5.30;;;4.90;;
6432;SDS011;3249;42.690;23.260;2023-05-27T15:17:58;5.70;;;5.30;;
6432;SDS011;3249;42.690;23.260;2023-05-27T15:20:27;5.97;;;5.33;;